createdAt,value
2019-06-26T00:00:50.428Z,84.08
2019-06-26T00:03:56.860Z,84.38
2019-06-26T00:07:03.318Z,84.97
2019-06-26T00:10:09.902Z,85.21
2019-06-26T00:13:25.696Z,86.76
2019-06-26T00:16:25.569Z,86.35
2019-06-26T00:19:32.121Z,85.77
2019-06-26T00:22:38.520Z,85.65
2019-06-26T00:25:44.886Z,85.81
2019-06-26T00:28:51.544Z,85.08
2019-06-26T00:31:58.217Z,85.34
2019-06-26T00:35:05.224Z,86.37
2019-06-26T00:38:11.660Z,85.69
2019-06-26T00:41:18.081Z,85.76
2019-06-26T00:44:24.568Z,84.21
2019-06-26T00:47:31.170Z,82.58
2019-06-26T00:50:37.586Z,83.49
2019-06-26T00:53:44.126Z,85.14
2019-06-26T00:56:51.974Z,85.62
2019-06-26T00:59:58.504Z,85.65
2019-06-26T01:03:04.961Z,86.86
2019-06-26T01:06:30.486Z,87.57
2019-06-26T01:09:37.974Z,85.53
2019-06-26T01:12:45.387Z,86.75
2019-06-26T01:15:51.824Z,85.62
2019-06-26T01:18:58.421Z,87.18
2019-06-26T01:22:04.962Z,85.79
2019-06-26T01:25:11.858Z,86.74
2019-06-26T01:28:18.306Z,86.65
2019-06-26T01:31:24.729Z,86.21
2019-06-26T01:34:32.856Z,85.23
2019-06-26T01:37:39.910Z,86.04
2019-06-26T01:40:46.340Z,86.08
2019-06-26T01:43:52.961Z,88.20
2019-06-26T01:47:06.512Z,87.28
2019-06-26T01:50:12.992Z,87.54
2019-06-26T01:53:21.356Z,87.32
2019-06-26T01:56:27.701Z,86.72
2019-06-26T01:59:34.175Z,86.58
2019-06-26T02:02:40.585Z,87.12
2019-06-26T02:05:46.999Z,86.57
2019-06-26T02:08:53.303Z,86.76
2019-06-26T02:12:00.595Z,86.88
2019-06-26T02:15:07.339Z,86.82
2019-06-26T02:18:31.590Z,87.43
2019-06-26T02:21:38.569Z,87.60
2019-06-26T02:24:44.954Z,86.39
2019-06-26T02:27:53.178Z,86.50
2019-06-26T02:30:59.566Z,86.35
2019-06-26T02:34:05.988Z,85.96
2019-06-26T02:37:12.435Z,85.16
2019-06-26T02:40:19.133Z,85.11
2019-06-26T02:43:25.563Z,86.91
2019-06-26T02:46:32.057Z,86.22
2019-06-26T02:49:38.564Z,86.87
2019-06-26T02:52:44.961Z,85.93
2019-06-26T02:55:51.345Z,87.03
2019-06-26T02:58:57.812Z,86.82
2019-06-26T03:02:04.466Z,86.48
2019-06-26T03:05:10.921Z,88.08
2019-06-26T03:08:17.274Z,87.98
2019-06-26T03:11:23.759Z,87.12
2019-06-26T03:14:30.293Z,87.03
2019-06-26T03:17:36.875Z,88.33
2019-06-26T03:20:47.012Z,86.74
2019-06-26T03:23:53.666Z,87.63
2019-06-26T03:27:00.162Z,87.50
2019-06-26T03:30:06.755Z,88.80
2019-06-26T03:33:13.200Z,88.63
2019-06-26T03:36:19.687Z,88.26
2019-06-26T03:39:26.126Z,88.20
2019-06-26T03:42:34.731Z,88.18
2019-06-26T03:45:41.205Z,87.82
2019-06-26T03:48:47.665Z,89.46
2019-06-26T03:51:54.142Z,87.01
2019-06-26T03:55:00.618Z,90.26
2019-06-26T03:58:07.008Z,86.65
2019-06-26T04:01:13.367Z,86.70
2019-06-26T04:04:19.756Z,86.47
2019-06-26T04:07:26.171Z,85.88
2019-06-26T04:10:33.702Z,86.81
2019-06-26T04:13:40.101Z,87.70
2019-06-26T04:16:46.541Z,87.26
2019-06-26T04:19:52.945Z,87.18
2019-06-26T04:22:59.743Z,87.28
2019-06-26T04:26:06.549Z,88.55
2019-06-26T04:29:12.952Z,86.96
2019-06-26T04:32:19.358Z,89.07
2019-06-26T04:35:25.810Z,86.17
2019-06-26T04:38:32.116Z,86.88
2019-06-26T04:41:38.596Z,86.56
2019-06-26T04:44:45.806Z,85.97
2019-06-26T04:47:52.159Z,85.09
2019-06-26T04:50:58.638Z,85.61
2019-06-26T04:54:05.093Z,86.53
2019-06-26T04:57:11.508Z,87.55
2019-06-26T05:00:21.640Z,87.45
2019-06-26T05:03:26.299Z,86.79
2019-06-26T05:06:32.803Z,89.46
2019-06-26T05:09:39.263Z,90.08
2019-06-26T05:12:45.776Z,89.25
2019-06-26T05:15:52.237Z,88.05
2019-06-26T05:18:58.704Z,87.90
2019-06-26T05:22:04.985Z,88.04
2019-06-26T05:25:12.220Z,87.57
2019-06-26T05:28:21.108Z,88.56
2019-06-26T05:31:27.603Z,88.11
2019-06-26T05:34:34.078Z,87.97
2019-06-26T05:37:40.525Z,88.79
2019-06-26T05:40:47.023Z,87.94
2019-06-26T05:43:53.379Z,88.08
2019-06-26T05:47:01.700Z,87.71
2019-06-26T05:50:08.631Z,88.14
2019-06-26T05:53:15.020Z,89.22
2019-06-26T05:56:21.483Z,89.99
2019-06-26T05:59:27.755Z,89.54
2019-06-26T06:02:34.199Z,88.56
2019-06-26T06:05:40.892Z,86.67
2019-06-26T06:08:47.405Z,88.07
2019-06-26T06:11:53.766Z,86.34
2019-06-26T06:15:00.147Z,86.75
2019-06-26T06:18:06.575Z,86.76
2019-06-26T06:21:12.945Z,87.70
2019-06-26T06:24:19.718Z,90.09
2019-06-26T06:27:27.212Z,91.47
2019-06-26T06:30:33.864Z,90.63
2019-06-26T06:33:40.286Z,89.10
2019-06-26T06:36:46.771Z,87.78
2019-06-26T06:39:53.044Z,87.97
2019-06-26T06:42:59.623Z,87.65
2019-06-26T06:46:06.117Z,88.05
2019-06-26T06:49:12.942Z,89.07
2019-06-26T06:52:19.276Z,88.62
2019-06-26T06:55:25.647Z,88.17
2019-06-26T06:58:32.131Z,88.85
2019-06-26T07:01:38.613Z,88.65
2019-06-26T07:04:45.050Z,88.26
2019-06-26T07:07:51.524Z,88.98
2019-06-26T07:10:57.931Z,89.52
2019-06-26T07:14:04.424Z,87.98
2019-06-26T07:17:20.424Z,88.51
2019-06-26T07:20:18.944Z,89.12
2019-06-26T07:23:25.478Z,88.50
2019-06-26T07:26:31.997Z,89.61
2019-06-26T07:29:38.367Z,89.38
2019-06-26T07:32:45.122Z,89.48
2019-06-26T07:35:51.684Z,88.58
2019-06-26T07:38:58.521Z,89.55
2019-06-26T07:42:04.980Z,87.86
2019-06-26T07:45:12.524Z,89.78
2019-06-26T07:48:20.566Z,89.66
2019-06-26T07:51:27.499Z,89.67
2019-06-26T07:54:33.912Z,88.60
2019-06-26T07:57:40.379Z,88.84
2019-06-26T08:00:46.779Z,88.99
2019-06-26T08:03:53.218Z,88.24
2019-06-26T08:06:59.550Z,88.49
2019-06-26T08:10:06.969Z,88.98
2019-06-26T08:13:13.301Z,89.07
2019-06-26T08:16:19.721Z,90.09
2019-06-26T08:19:26.130Z,89.10
2019-06-26T08:22:32.623Z,88.40
2019-06-26T08:25:39.054Z,89.40
2019-06-26T08:28:45.676Z,88.62
2019-06-26T08:31:51.922Z,88.46
2019-06-26T08:34:58.664Z,88.41
2019-06-26T08:38:12.461Z,89.83
2019-06-26T08:41:13.353Z,88.40
2019-06-26T08:44:19.804Z,90.75
2019-06-26T08:47:26.526Z,89.20
2019-06-26T08:50:33.008Z,88.90
2019-06-26T08:53:39.690Z,90.01
2019-06-26T08:56:46.137Z,88.54
2019-06-26T08:59:52.431Z,88.91
2019-06-26T09:02:58.780Z,88.59
2019-06-26T09:06:05.267Z,89.07
2019-06-26T09:09:11.614Z,90.51
2019-06-26T09:12:18.234Z,89.18
2019-06-26T09:15:24.702Z,90.45
2019-06-26T09:18:35.823Z,90.75
2019-06-26T09:21:39.195Z,88.60
2019-06-26T09:24:45.754Z,89.11
2019-06-26T09:27:52.215Z,89.67
2019-06-26T09:30:58.627Z,89.47
2019-06-26T09:34:05.369Z,89.23
2019-06-26T09:37:13.143Z,88.42
2019-06-26T09:40:19.622Z,88.04
2019-06-26T09:43:26.117Z,88.07
2019-06-26T09:46:32.461Z,88.29
2019-06-26T09:49:38.842Z,88.41
2019-06-26T09:52:45.298Z,88.46
2019-06-26T09:55:51.882Z,89.42
2019-06-26T09:58:58.205Z,88.90
2019-06-26T10:02:04.816Z,89.02
2019-06-26T10:05:13.511Z,88.78
2019-06-26T10:08:19.935Z,89.52
2019-06-26T10:11:26.380Z,89.04
2019-06-26T10:14:46.629Z,89.18
2019-06-26T10:17:41.063Z,89.78
2019-06-26T10:20:47.577Z,88.29
2019-06-26T10:23:54.023Z,89.10
2019-06-26T10:27:00.550Z,89.01
2019-06-26T10:30:08.523Z,89.34
2019-06-26T10:33:16.068Z,88.40
2019-06-26T10:36:24.582Z,88.31
2019-06-26T10:39:30.921Z,87.53
2019-06-26T10:42:37.391Z,88.07
2019-06-26T10:45:43.922Z,89.23
2019-06-26T10:48:50.289Z,87.84
2019-06-26T10:51:56.841Z,87.60
2019-06-26T10:55:03.399Z,87.38
2019-06-26T10:58:10.307Z,87.60
2019-06-26T11:01:16.744Z,87.71
2019-06-26T11:04:23.200Z,88.25
2019-06-26T11:07:29.723Z,87.95
2019-06-26T11:10:36.238Z,87.65
2019-06-26T11:13:42.746Z,87.57
2019-06-26T11:16:50.801Z,87.16
2019-06-26T11:19:57.252Z,87.45
2019-06-26T11:23:03.699Z,88.32
2019-06-26T11:26:11.287Z,87.88
2019-06-26T11:29:17.693Z,89.73
2019-06-26T11:32:24.297Z,89.40
2019-06-26T11:35:30.867Z,88.19
2019-06-26T11:38:37.251Z,87.78
2019-06-26T11:41:43.977Z,87.75
2019-06-26T11:44:50.462Z,87.25
2019-06-26T11:47:56.988Z,87.67
2019-06-26T11:51:03.427Z,87.70
2019-06-26T11:54:09.782Z,87.70
2019-06-26T11:57:16.268Z,89.17
2019-06-26T12:00:24.043Z,87.70
2019-06-26T12:03:30.557Z,87.89
2019-06-26T12:06:37.064Z,88.70
2019-06-26T12:09:43.593Z,90.00
2019-06-26T12:12:50.091Z,87.44
2019-06-26T12:15:56.450Z,87.12
2019-06-26T12:19:02.975Z,87.18
2019-06-26T12:22:09.347Z,87.00
2019-06-26T12:25:15.837Z,87.40
2019-06-26T12:28:22.266Z,86.85
2019-06-26T12:31:28.998Z,88.16
2019-06-26T12:34:35.370Z,86.64
2019-06-26T12:37:41.940Z,86.53
2019-06-26T12:40:48.289Z,87.48
2019-06-26T12:43:55.012Z,88.20
2019-06-26T12:47:01.472Z,88.31
2019-06-26T12:50:09.867Z,88.26
2019-06-26T12:53:16.282Z,88.57
2019-06-26T12:56:22.633Z,88.97
2019-06-26T12:59:29.151Z,87.81
2019-06-26T13:02:36.450Z,87.12
2019-06-26T13:05:42.885Z,88.18
2019-06-26T13:08:50.521Z,88.78
2019-06-26T13:11:56.999Z,89.02
2019-06-26T13:15:03.635Z,88.28
2019-06-26T13:18:11.594Z,88.97
2019-06-26T13:21:18.005Z,86.99
2019-06-26T13:24:24.439Z,86.96
2019-06-26T13:27:30.973Z,86.80
2019-06-26T13:30:38.734Z,86.56
2019-06-26T13:33:45.164Z,86.64
2019-06-26T13:36:51.619Z,86.45
2019-06-26T13:39:57.970Z,86.26
2019-06-26T13:43:04.395Z,87.00
2019-06-26T13:46:11.118Z,87.06
2019-06-26T13:49:17.618Z,87.27
2019-06-26T13:52:24.065Z,87.09
2019-06-26T13:55:30.484Z,87.35
2019-06-26T13:58:36.816Z,88.20
2019-06-26T14:01:43.379Z,87.58
2019-06-26T14:04:50.156Z,88.02
2019-06-26T14:07:56.578Z,87.87
2019-06-26T14:11:03.096Z,87.94
2019-06-26T14:14:09.594Z,90.30
2019-06-26T14:17:16.109Z,89.54
2019-06-26T14:20:23.131Z,88.09
2019-06-26T14:23:29.572Z,88.05
2019-06-26T14:26:36.053Z,88.37
2019-06-26T14:29:42.517Z,88.47
2019-06-26T14:32:48.972Z,88.42
2019-06-26T14:35:55.447Z,88.47
2019-06-26T14:39:01.956Z,88.76
2019-06-26T14:42:10.033Z,89.80
2019-06-26T14:45:17.423Z,90.95
2019-06-26T14:48:25.149Z,90.40
2019-06-26T14:51:43.407Z,90.65
2019-06-26T14:54:39.793Z,90.41
2019-06-26T14:57:46.237Z,91.19
2019-06-26T15:00:53.000Z,90.98
2019-06-26T15:03:59.428Z,91.17
2019-06-26T15:07:06.166Z,91.14
2019-06-26T15:10:14.445Z,88.96
2019-06-26T15:13:20.884Z,88.14
2019-06-26T15:16:30.351Z,88.61
2019-06-26T15:19:35.538Z,88.28
2019-06-26T15:22:42.046Z,88.24
2019-06-26T15:25:48.548Z,87.97
2019-06-26T15:28:54.992Z,89.20
2019-06-26T15:32:01.489Z,88.03
2019-06-26T15:35:07.973Z,90.25
2019-06-26T15:38:14.696Z,88.84
2019-06-26T15:41:21.244Z,90.74
2019-06-26T15:44:27.622Z,89.11
2019-06-26T15:47:34.056Z,87.93
2019-06-26T15:50:40.727Z,87.55
2019-06-26T15:53:47.210Z,86.98
2019-06-26T15:56:53.670Z,86.88
2019-06-26T16:00:00.125Z,87.22
2019-06-26T16:03:06.685Z,87.52
2019-06-26T16:06:13.149Z,88.24
2019-06-26T16:09:19.682Z,89.61
2019-06-26T16:12:26.078Z,88.48
2019-06-26T16:15:33.039Z,88.78
2019-06-26T16:18:44.617Z,87.89
2019-06-26T16:21:51.029Z,89.38
2019-06-26T16:24:57.395Z,89.62
2019-06-26T16:28:05.690Z,90.03
2019-06-26T16:31:12.017Z,89.96
2019-06-26T16:34:18.614Z,87.38
2019-06-26T16:37:25.053Z,86.90
2019-06-26T16:40:31.546Z,86.71
2019-06-26T16:43:38.096Z,87.01
2019-06-26T16:46:44.625Z,87.28
2019-06-26T16:49:51.068Z,87.63
2019-06-26T16:52:57.860Z,87.75
2019-06-26T16:56:04.402Z,88.35
2019-06-26T16:59:10.943Z,87.49
2019-06-26T17:02:17.372Z,87.24
2019-06-26T17:05:24.804Z,87.17
2019-06-26T17:08:31.227Z,89.14
2019-06-26T17:11:38.218Z,88.28
2019-06-26T17:14:44.595Z,88.55
2019-06-26T17:17:51.050Z,88.47
2019-06-26T17:20:57.518Z,88.74
2019-06-26T17:24:06.126Z,88.82
2019-06-26T17:27:12.477Z,90.13
2019-06-26T17:30:19.278Z,89.76
2019-06-26T17:33:25.762Z,88.44
2019-06-26T17:36:32.232Z,88.63
2019-06-26T17:39:38.706Z,89.02
2019-06-26T17:42:45.211Z,88.85
2019-06-26T17:45:51.723Z,89.51
2019-06-26T17:48:58.255Z,88.02
2019-06-26T17:52:04.691Z,88.80
2019-06-26T17:55:11.357Z,87.73
2019-06-26T17:58:17.837Z,87.25
2019-06-26T18:01:24.237Z,87.85
2019-06-26T18:04:30.669Z,87.01
2019-06-26T18:07:37.396Z,87.29
2019-06-26T18:10:43.910Z,87.19
2019-06-26T18:13:50.837Z,87.25
2019-06-26T18:16:57.252Z,88.03
2019-06-26T18:20:03.943Z,90.32
2019-06-26T18:23:10.413Z,87.98
2019-06-26T18:26:17.940Z,88.33
2019-06-26T18:29:24.384Z,88.23
2019-06-26T18:32:31.243Z,87.98
2019-06-26T18:35:37.725Z,90.16
2019-06-26T18:38:44.196Z,91.27
2019-06-26T18:41:50.611Z,90.73
2019-06-26T18:44:57.099Z,90.28
2019-06-26T18:48:03.588Z,90.02
2019-06-26T18:51:10.088Z,90.43
2019-06-26T18:54:16.461Z,89.43
2019-06-26T18:57:23.127Z,89.10
2019-06-26T19:00:29.676Z,90.10
2019-06-26T19:03:36.238Z,91.53
2019-06-26T19:06:42.686Z,90.85
2019-06-26T19:09:49.255Z,90.83
2019-06-26T19:12:55.762Z,91.02
2019-06-26T19:16:04.659Z,91.89
2019-06-26T19:19:12.394Z,91.92
2019-06-26T19:22:19.040Z,92.53
2019-06-26T19:25:25.607Z,93.94
2019-06-26T19:28:32.086Z,93.19
2019-06-26T19:31:39.728Z,92.00
2019-06-26T19:34:46.182Z,94.20
2019-06-26T19:37:52.626Z,92.66
2019-06-26T19:40:59.507Z,92.98
2019-06-26T19:44:08.816Z,91.39
2019-06-26T19:47:14.383Z,91.44
2019-06-26T19:50:23.606Z,92.57
2019-06-26T19:53:29.931Z,92.74
2019-06-26T19:56:36.379Z,94.62
2019-06-26T19:59:43.358Z,93.87
2019-06-26T20:02:49.884Z,94.03
2019-06-26T20:05:56.418Z,95.51
2019-06-26T20:09:02.801Z,94.13
2019-06-26T20:12:10.559Z,93.51
2019-06-26T20:15:17.020Z,92.95
2019-06-26T20:18:24.017Z,93.17
2019-06-26T20:21:30.473Z,92.73
2019-06-26T20:24:43.947Z,92.53
2019-06-26T20:27:46.214Z,93.39
2019-06-26T20:30:52.723Z,92.52
2019-06-26T20:33:59.098Z,93.20
2019-06-26T20:37:05.542Z,92.22
2019-06-26T20:40:12.308Z,92.03
2019-06-26T20:43:18.687Z,92.01
2019-06-26T20:46:25.130Z,91.63
2019-06-26T20:49:32.586Z,91.72
2019-06-26T20:52:39.056Z,94.16
2019-06-26T20:55:45.589Z,93.83
2019-06-26T20:58:52.105Z,94.25
2019-06-26T21:02:00.186Z,93.32
2019-06-26T21:05:07.072Z,93.89
2019-06-26T21:08:13.558Z,93.80
2019-06-26T21:11:21.483Z,93.71
2019-06-26T21:14:28.011Z,91.56
2019-06-26T21:17:34.432Z,92.26
2019-06-26T21:20:41.195Z,92.08
2019-06-26T21:23:47.637Z,92.04
2019-06-26T21:26:54.056Z,91.24
2019-06-26T21:30:02.810Z,93.82
2019-06-26T21:33:09.470Z,96.12
2019-06-26T21:36:18.157Z,96.30
2019-06-26T21:39:24.617Z,94.64
2019-06-26T21:42:31.138Z,95.09
2019-06-26T21:45:37.590Z,93.58
2019-06-26T21:48:44.038Z,93.75
2019-06-26T21:51:50.494Z,93.45
2019-06-26T21:54:57.437Z,94.21
2019-06-26T21:58:21.885Z,94.26
2019-06-26T22:01:46.436Z,94.98
2019-06-26T22:05:12.577Z,94.35
2019-06-26T22:08:27.093Z,92.98
2019-06-26T22:11:35.237Z,94.37
2019-06-26T22:14:41.660Z,94.46
2019-06-26T22:17:48.368Z,95.11
2019-06-26T22:20:55.134Z,94.37
2019-06-26T22:24:01.836Z,94.87
2019-06-26T22:27:08.605Z,94.79
2019-06-26T22:30:15.784Z,94.63
2019-06-26T22:33:22.308Z,94.13
2019-06-26T22:36:28.804Z,93.67
2019-06-26T22:39:35.269Z,93.83
2019-06-26T22:42:41.821Z,93.11
2019-06-26T22:45:48.254Z,94.00
2019-06-26T22:48:56.165Z,93.63
2019-06-26T22:52:02.604Z,91.81
2019-06-26T22:55:09.315Z,92.17
2019-06-26T22:58:16.052Z,91.64
2019-06-26T23:01:22.573Z,90.48
2019-06-26T23:04:30.622Z,91.54
2019-06-26T23:07:37.563Z,92.43
2019-06-26T23:10:43.963Z,92.70
2019-06-26T23:13:50.491Z,92.60
2019-06-26T23:16:56.945Z,91.81
2019-06-26T23:20:04.296Z,91.87
2019-06-26T23:23:11.395Z,92.16
2019-06-26T23:26:23.798Z,90.73
2019-06-26T23:29:26.200Z,92.45
2019-06-26T23:32:32.718Z,92.65
2019-06-26T23:35:40.035Z,93.36
2019-06-26T23:38:46.566Z,91.86
2019-06-26T23:41:54.565Z,92.86
2019-06-26T23:45:01.140Z,92.33
2019-06-26T23:48:07.582Z,92.53
2019-06-26T23:51:14.056Z,91.40
2019-06-26T23:54:20.550Z,92.32
2019-06-26T23:57:27.153Z,91.15
